Time;durP1;ratioP1;P1;durP2;ratioP2;P2;SDS_P1;SDS_P2;PMS_P1;PMS_P2;Temp;Humidity;BMP_temperature;BMP_pressure;BME280_temperature;BME280_humidity;BME280_pressure;Samples;Min_cycle;Max_cycle;Signal;HPM_P1;HPM_P2
2021/05/29 00:00:16;;;;;;;19.03;8.03;;;;;;;11.08;55.03;99092.81;125548;1104;103235;-76
2021/05/29 00:03:05;;;;;;;17.60;8.17;;;;;;;11.06;54.74;99084.09;125612;1104;103238;-76
2021/05/29 00:05:33;;;;;;;17.37;7.30;;;;;;;11.01;55.05;99085.28;125702;1096;103071;-75
2021/05/29 00:08:02;;;;;;;18.63;7.63;;;;;;;11.01;55.20;99087.08;125675;1104;102984;-74
2021/05/29 00:10:32;;;;;;;18.87;8.50;;;;;;;11.02;55.22;99083.45;125546;1104;103129;-74
2021/05/29 00:13:00;;;;;;;18.20;8.00;;;;;;;11.04;55.23;99084.19;125516;1104;103125;-74
2021/05/29 00:15:30;;;;;;;16.73;7.63;;;;;;;11.06;55.38;99092.08;125590;1104;102985;-75
2021/05/29 00:18:00;;;;;;;17.27;8.07;;;;;;;11.06;55.64;99092.08;125495;1104;103116;-75
2021/05/29 00:20:28;;;;;;;17.30;7.73;;;;;;;11.02;55.46;99092.31;125544;1104;103056;-76
2021/05/29 00:22:57;;;;;;;19.47;7.97;;;;;;;11.02;55.53;99091.44;125601;1104;103059;-74
2021/05/29 00:25:25;;;;;;;16.73;7.23;;;;;;;11.01;55.56;99093.27;125516;1104;103261;-73
2021/05/29 00:27:53;;;;;;;20.43;7.83;;;;;;;10.97;55.39;99101.61;125535;1104;103008;-73
2021/05/29 00:30:22;;;;;;;16.20;7.73;;;;;;;10.93;55.64;99103.63;125573;1096;102995;-73
2021/05/29 00:32:52;;;;;;;16.00;7.60;;;;;;;10.88;55.69;99100.45;125534;1096;103009;-73
2021/05/29 00:35:20;;;;;;;17.27;7.57;;;;;;;10.85;55.92;99098.88;125609;1104;102988;-75
2021/05/29 00:37:49;;;;;;;19.07;7.50;;;;;;;10.79;55.87;99094.00;125594;1104;103119;-73
2021/05/29 00:40:18;;;;;;;16.60;7.47;;;;;;;10.78;55.99;99094.13;125522;1104;102905;-73
2021/05/29 00:42:46;;;;;;;16.00;7.00;;;;;;;10.77;56.05;99101.25;125512;1096;103129;-74
2021/05/29 00:45:15;;;;;;;15.20;7.50;;;;;;;10.75;55.95;99089.03;125560;1104;103013;-74
2021/05/29 00:47:43;;;;;;;16.63;7.47;;;;;;;10.71;56.08;99081.27;125579;1104;103062;-74
2021/05/29 00:50:15;;;;;;;17.97;7.90;;;;;;;10.67;56.21;99086.91;125585;1104;103055;-74
2021/05/29 00:52:44;;;;;;;20.80;8.03;;;;;;;10.65;56.42;99091.48;125529;1104;103234;-72
2021/05/29 00:55:15;;;;;;;17.10;7.33;;;;;;;10.65;56.43;99094.15;125526;1104;103075;-73
2021/05/29 00:57:50;;;;;;;16.13;7.20;;;;;;;10.61;56.37;99084.69;125513;1104;102983;-72
2021/05/29 01:00:22;;;;;;;16.47;7.03;;;;;;;10.55;56.31;99086.00;125579;1096;103067;-72
2021/05/29 01:02:51;;;;;;;17.00;7.43;;;;;;;10.51;56.52;99081.86;125576;1096;102987;-75
2021/05/29 01:05:22;;;;;;;16.10;7.13;;;;;;;10.51;56.77;99076.54;125578;1104;102979;-75
2021/05/29 01:07:53;;;;;;;16.17;6.90;;;;;;;10.49;56.73;99081.12;125570;1104;102984;-73
2021/05/29 01:10:25;;;;;;;15.90;7.00;;;;;;;10.49;56.88;99086.44;125536;1104;102982;-73
2021/05/29 01:12:54;;;;;;;15.90;6.90;;;;;;;10.48;56.74;99085.60;125540;1104;103156;-73
2021/05/29 01:15:24;;;;;;;16.07;7.87;;;;;;;10.45;56.92;99084.95;125550;1104;103081;-75
2021/05/29 01:17:53;;;;;;;15.63;7.20;;;;;;;10.42;57.02;99081.55;125490;1097;103059;-75
2021/05/29 01:20:21;;;;;;;16.67;7.17;;;;;;;10.42;57.02;99075.41;125547;1104;103045;-74
2021/05/29 01:22:53;;;;;;;15.67;6.70;;;;;;;10.42;57.27;99070.09;125514;1104;103038;-75
2021/05/29 01:25:28;;;;;;;14.83;6.80;;;;;;;10.40;57.25;99080.81;125529;1097;103009;-75
2021/05/29 01:28:04;;;;;;;17.27;7.37;;;;;;;10.40;57.38;99079.98;125564;1104;103209;-73
2021/05/29 01:30:47;;;;;;;16.70;7.03;;;;;;;10.45;57.41;99082.30;125519;1104;103008;-74
2021/05/29 01:33:21;;;;;;;17.43;7.37;;;;;;;10.44;57.31;99073.48;125601;1104;102987;-74
2021/05/29 01:35:53;;;;;;;14.10;5.93;;;;;;;10.47;57.55;99077.72;125591;1104;103056;-74
2021/05/29 01:38:38;;;;;;;15.27;6.87;;;;;;;10.44;57.62;99078.80;127139;1104;103056;-75
2021/05/29 01:41:11;;;;;;;15.53;7.20;;;;;;;10.42;57.65;99067.42;125568;1104;102982;-74
2021/05/29 01:43:43;;;;;;;14.88;7.45;;;;;;;10.41;57.75;99073.70;125539;1104;103055;-74
2021/05/29 01:46:14;;;;;;;15.27;6.33;;;;;;;10.41;57.79;99074.53;125607;1097;102987;-74
2021/05/29 01:48:45;;;;;;;14.83;7.10;;;;;;;10.40;57.89;99074.66;125589;1104;103089;-74
2021/05/29 01:51:17;;;;;;;17.13;6.70;;;;;;;10.39;57.91;99073.80;125595;1097;103013;-74
2021/05/29 01:53:47;;;;;;;14.67;6.63;;;;;;;10.41;57.91;99068.38;125598;1104;103088;-73
2021/05/29 01:56:17;;;;;;;17.67;7.70;;;;;;;10.41;58.15;99071.88;125586;1097;103020;-75
2021/05/29 01:58:47;;;;;;;16.67;7.33;;;;;;;10.41;57.99;99073.70;125582;1104;103019;-75
2021/05/29 02:01:16;;;;;;;16.87;7.40;;;;;;;10.39;58.13;99068.48;125559;1104;103005;-75
2021/05/29 02:03:45;;;;;;;16.57;7.33;;;;;;;10.40;58.30;99074.66;125477;1104;103504;-75
2021/05/29 02:06:15;;;;;;;16.93;7.67;;;;;;;10.40;58.23;99070.18;126051;1104;103107;-75
2021/05/29 02:08:44;;;;;;;15.83;7.17;;;;;;;10.45;58.41;99075.19;125548;1096;103085;-74
2021/05/29 02:11:12;;;;;;;16.97;7.77;;;;;;;10.43;58.47;99077.94;125484;1096;102987;-74
2021/05/29 02:13:43;;;;;;;16.27;8.03;;;;;;;10.43;58.56;99077.94;125496;1096;103004;-75
2021/05/29 02:16:14;;;;;;;17.70;8.03;;;;;;;10.45;58.54;99079.64;125583;1104;103085;-74
2021/05/29 02:18:43;;;;;;;16.43;8.07;;;;;;;10.43;58.61;99077.94;125588;1104;103059;-73
2021/05/29 02:21:15;;;;;;;19.17;9.10;;;;;;;10.41;58.65;99079.86;125492;1104;103016;-73
2021/05/29 02:23:50;;;;;;;18.60;8.73;;;;;;;10.39;58.57;99087.09;125604;1096;102996;-74
2021/05/29 02:26:22;;;;;;;19.57;9.43;;;;;;;10.38;58.45;99088.05;125531;1104;103020;-74
2021/05/29 02:28:55;;;;;;;18.70;9.13;;;;;;;10.35;58.57;99088.27;125518;1104;103112;-74
2021/05/29 02:31:24;;;;;;;17.97;8.73;;;;;;;10.35;58.86;99080.29;125596;1097;103137;-75
2021/05/29 02:33:53;;;;;;;18.13;8.27;;;;;;;10.37;58.79;99081.03;125480;1104;102968;-74
2021/05/29 02:36:21;;;;;;;18.17;8.27;;;;;;;10.38;59.25;99082.73;125534;1104;103016;-76
2021/05/29 02:38:49;;;;;;;17.80;7.97;;;;;;;10.39;59.01;99075.63;125506;1096;102987;-76
2021/05/29 02:41:17;;;;;;;19.43;8.33;;;;;;;10.37;59.05;99081.03;125528;1104;103059;-76
2021/05/29 02:43:46;;;;;;;18.00;7.83;;;;;;;10.35;59.22;99080.29;125587;1097;103003;-75
2021/05/29 02:46:14;;;;;;;16.83;7.33;;;;;;;10.33;59.32;99087.53;125621;1096;103062;-75
2021/05/29 02:48:44;;;;;;;18.50;7.70;;;;;;;10.33;59.42;99076.02;125585;1096;103086;-74
2021/05/29 02:51:13;;;;;;;17.03;8.23;;;;;;;10.35;59.30;99080.29;125546;1104;103011;-75
2021/05/29 02:53:42;;;;;;;17.93;8.13;;;;;;;10.34;59.47;99080.38;125490;1104;103101;-76
2021/05/29 02:56:11;;;;;;;18.13;7.97;;;;;;;10.32;59.22;99083.17;125514;1104;103510;-75
2021/05/29 02:58:39;;;;;;;17.37;7.73;;;;;;;10.31;59.52;99076.15;125552;1104;103013;-76
2021/05/29 03:01:08;;;;;;;20.03;8.37;;;;;;;10.33;59.59;99084.87;125582;1104;102978;-76
2021/05/29 03:03:37;;;;;;;19.57;7.77;;;;;;;10.33;59.61;99078.68;125497;1096;102988;-73
2021/05/29 03:06:05;;;;;;;18.73;8.10;;;;;;;10.32;59.72;99083.17;125530;1104;103072;-74
2021/05/29 03:08:34;;;;;;;17.70;8.00;;;;;;;10.35;59.68;99087.41;125501;1104;103011;-75
2021/05/29 03:11:04;;;;;;;15.73;7.60;;;;;;;10.36;59.67;99075.80;125498;1104;102908;-74
2021/05/29 03:13:32;;;;;;;18.17;7.47;;;;;;;10.38;60.08;99081.87;125534;1104;103467;-75
2021/05/29 03:16:01;;;;;;;18.47;8.10;;;;;;;10.41;60.07;99087.00;125537;1104;103085;-76
2021/05/29 03:18:31;;;;;;;16.70;7.37;;;;;;;10.46;59.98;99081.34;125520;1104;103086;-76
2021/05/29 03:21:00;;;;;;;19.50;7.70;;;;;;;10.48;60.15;99084.73;125520;1096;103202;-77
2021/05/29 03:23:29;;;;;;;17.27;7.33;;;;;;;10.51;60.08;99087.17;125606;1096;103031;-75
2021/05/29 03:25:57;;;;;;;15.83;7.70;;;;;;;10.50;60.14;99083.69;125619;1104;103008;-74
2021/05/29 03:28:25;;;;;;;18.00;8.27;;;;;;;10.52;60.07;99081.77;126690;1104;103139;-74
2021/05/29 03:30:54;;;;;;;18.20;8.10;;;;;;;10.54;60.19;99086.95;125536;1104;103055;-76
2021/05/29 03:33:22;;;;;;;17.53;7.60;;;;;;;10.57;60.21;99092.06;125585;1104;103153;-76
2021/05/29 03:35:50;;;;;;;16.47;7.33;;;;;;;10.55;60.33;99086.86;125490;1097;103006;-76
2021/05/29 03:38:19;;;;;;;17.73;8.33;;;;;;;10.57;60.57;99078.76;125523;1104;103005;-77
2021/05/29 03:40:50;;;;;;;15.13;7.10;;;;;;;10.61;60.45;99088.22;125511;1104;103134;-77
2021/05/29 03:43:18;;;;;;;18.33;6.97;;;;;;;10.61;60.46;99082.90;125586;1104;103529;-75
2021/05/29 03:45:46;;;;;;;16.83;7.63;;;;;;;10.60;60.33;99083.86;125568;1104;103059;-76
2021/05/29 03:48:15;;;;;;;15.77;7.37;;;;;;;10.62;60.71;99081.94;125550;1094;102979;-75
2021/05/29 03:50:43;;;;;;;17.27;7.87;;;;;;;10.65;60.60;99086.17;125592;1104;103075;-74
2021/05/29 03:53:12;;;;;;;16.37;7.80;;;;;;;10.66;60.62;99082.55;125535;1104;103077;-75
2021/05/29 03:55:40;;;;;;;17.23;7.43;;;;;;;10.64;60.49;99076.48;125572;1104;103116;-75
2021/05/29 03:58:08;;;;;;;19.13;9.23;;;;;;;10.62;60.41;99081.94;125595;1104;103058;-73
2021/05/29 04:00:37;;;;;;;17.00;7.80;;;;;;;10.64;60.82;99085.34;125528;1104;103080;-74
2021/05/29 04:03:05;;;;;;;18.80;8.23;;;;;;;10.65;60.79;99076.39;125476;1104;103072;-75
2021/05/29 04:05:33;;;;;;;18.00;7.77;;;;;;;10.68;60.87;99075.31;125485;1097;103101;-74
2021/05/29 04:08:02;;;;;;;17.50;8.23;;;;;;;10.68;60.85;99076.17;125608;1104;103197;-76
2021/05/29 04:10:33;;;;;;;19.00;9.17;;;;;;;10.70;61.00;99073.39;125478;1104;103117;-77
2021/05/29 04:13:02;;;;;;;18.73;8.67;;;;;;;10.75;60.91;99078.39;125466;1104;103131;-76
2021/05/29 04:15:30;;;;;;;17.03;8.30;;;;;;;10.78;61.07;99078.16;125589;1104;103116;-77
2021/05/29 04:18:00;;;;;;;20.00;8.90;;;;;;;10.83;61.02;99071.53;125515;1104;103008;-77
2021/05/29 04:20:30;;;;;;;18.37;8.37;;;;;;;10.84;61.16;99069.70;125594;1097;103010;-73
2021/05/29 04:22:58;;;;;;;18.63;8.33;;;;;;;10.87;61.21;99074.80;125582;1104;102984;-74
2021/05/29 04:25:29;;;;;;;18.60;8.80;;;;;;;10.91;61.25;99080.77;125432;1104;103052;-74
2021/05/29 04:27:58;;;;;;;19.67;8.43;;;;;;;10.93;61.17;99089.48;125565;1104;103008;-74
2021/05/29 04:30:30;;;;;;;18.17;9.57;;;;;;;10.95;61.37;99083.08;125586;1104;103103;-73
2021/05/29 04:32:58;;;;;;;19.00;9.30;;;;;;;11.00;61.38;99082.75;125571;1104;103412;-74
2021/05/29 04:35:27;;;;;;;21.20;9.83;;;;;;;11.03;61.30;99082.50;125530;1104;103418;-73
2021/05/29 04:37:56;;;;;;;18.93;9.33;;;;;;;11.06;61.34;99079.61;125461;1104;103163;-75
2021/05/29 04:40:26;;;;;;;17.37;8.63;;;;;;;11.09;61.41;99082.04;125528;1104;103080;-75
2021/05/29 04:42:59;;;;;;;19.70;9.63;;;;;;;11.11;61.44;99081.94;125528;1096;102984;-73
2021/05/29 04:45:28;;;;;;;20.40;10.08;;;;;;;11.14;61.45;99084.38;125489;1096;103120;-81
2021/05/29 04:47:56;;;;;;;22.27;9.13;;;;;;;11.21;61.30;99090.08;125484;1096;103547;-74
2021/05/29 04:50:25;;;;;;;22.50;11.33;;;;;;;11.22;61.52;99075.80;125509;1104;103056;-74
2021/05/29 04:52:53;;;;;;;20.40;10.33;;;;;;;11.27;61.69;99076.31;125651;1096;103187;-72
2021/05/29 04:55:22;;;;;;;19.70;9.45;;;;;;;11.32;61.66;99076.81;125639;1096;103082;-75
2021/05/29 04:57:51;;;;;;;19.90;9.60;;;;;;;11.45;61.56;99079.39;125578;1096;102987;-73
2021/05/29 05:00:20;;;;;;;20.30;9.43;;;;;;;11.55;61.79;99079.52;125547;1104;102853;-72
2021/05/29 05:02:48;;;;;;;21.60;10.63;;;;;;;11.67;61.84;99080.39;125518;1096;103029;-74
2021/05/29 05:05:17;;;;;;;21.40;11.30;;;;;;;11.70;61.80;99077.49;125602;1096;102981;-73
2021/05/29 05:07:46;;;;;;;21.37;11.17;;;;;;;11.71;61.93;99082.72;125637;1104;102987;-75
2021/05/29 05:10:15;;;;;;;23.13;11.67;;;;;;;11.72;61.89;99072.89;125620;1104;103462;-74
2021/05/29 05:12:43;;;;;;;21.93;10.97;;;;;;;11.72;61.84;99072.89;125579;1104;103190;-74
2021/05/29 05:15:15;;;;;;;20.80;11.47;;;;;;;11.74;61.86;99074.48;125563;1096;102998;-75
2021/05/29 05:17:45;;;;;;;21.60;10.57;;;;;;;11.80;62.15;99082.98;125573;1104;103008;-75
2021/05/29 05:20:17;;;;;;;22.90;11.87;;;;;;;11.86;62.02;99078.01;125542;1104;103062;-75
2021/05/29 05:22:47;;;;;;;22.90;11.47;;;;;;;11.91;62.17;99080.30;125581;1104;103072;-75
2021/05/29 05:25:17;;;;;;;23.87;12.77;;;;;;;11.94;62.18;99072.07;125633;1104;103008;-73
2021/05/29 05:27:47;;;;;;;23.20;12.87;;;;;;;11.96;62.06;99075.47;125478;1104;103094;-73
2021/05/29 05:30:15;;;;;;;21.60;12.20;;;;;;;11.96;62.23;99069.30;126152;1104;103346;-73
2021/05/29 05:32:44;;;;;;;21.53;11.83;;;;;;;11.97;62.09;99071.00;125568;1104;103007;-69
2021/05/29 05:35:16;;;;;;;22.15;11.70;;;;;;;11.97;62.19;99079.83;125533;1104;102998;-71
2021/05/29 05:37:46;;;;;;;22.23;11.00;;;;;;;11.97;62.02;99076.33;125504;1104;103093;-73
2021/05/29 05:40:17;;;;;;;22.00;10.93;;;;;;;11.96;62.29;99080.80;125534;1104;103100;-72
2021/05/29 05:42:45;;;;;;;22.50;10.90;;;;;;;11.97;62.49;99084.33;125555;1104;103120;-73
2021/05/29 05:45:17;;;;;;;21.33;10.00;;;;;;;11.94;62.34;99079.23;125539;1096;103110;-74
2021/05/29 05:47:45;;;;;;;20.77;10.10;;;;;;;11.93;62.38;99080.20;125516;1104;102984;-74
2021/05/29 05:50:13;;;;;;;20.93;10.13;;;;;;;11.91;62.26;99093.63;125522;1104;102979;-75
2021/05/29 05:52:42;;;;;;;21.20;10.53;;;;;;;11.88;62.32;99080.54;125513;1104;103438;-74
2021/05/29 05:55:13;;;;;;;19.37;10.40;;;;;;;11.87;62.43;99081.51;125512;1096;103019;-70
2021/05/29 05:57:44;;;;;;;19.93;10.23;;;;;;;11.89;62.44;99091.09;125494;1104;103040;-69
2021/05/29 06:00:18;;;;;;;18.63;9.27;;;;;;;11.94;62.59;99077.40;125552;1096;103012;-71
2021/05/29 06:02:47;;;;;;;20.97;9.70;;;;;;;11.99;62.39;99087.72;125530;1104;103055;-70
2021/05/29 06:05:17;;;;;;;19.50;9.03;;;;;;;12.02;62.56;99088.34;125461;1096;103208;-71
2021/05/29 06:07:46;;;;;;;19.53;9.13;;;;;;;12.05;62.68;99092.58;125536;1104;103128;-72
2021/05/29 06:10:14;;;;;;;16.73;8.50;;;;;;;12.08;62.62;99091.50;125544;1104;102987;-72
2021/05/29 06:12:46;;;;;;;14.95;7.50;;;;;;;12.09;62.37;99095.87;125536;1099;102981;-72
2021/05/29 06:20:39;;;;;;;19.25;8.80;;;;;;;12.04;62.71;99099.74;125552;1104;103043;-70
2021/05/29 06:23:10;;;;;;;17.23;9.10;;;;;;;12.00;62.57;99106.28;125517;1104;102995;-72
2021/05/29 06:25:41;;;;;;;16.33;7.90;;;;;;;11.98;62.63;99104.69;125549;1096;102984;-73
2021/05/29 06:28:11;;;;;;;16.03;7.53;;;;;;;11.96;62.88;99099.45;125495;1104;103158;-71
2021/05/29 06:30:40;;;;;;;17.53;8.80;;;;;;;11.91;62.74;99107.82;125494;1096;103041;-71
2021/05/29 06:33:09;;;;;;;13.93;7.07;;;;;;;11.88;62.72;99107.19;125566;1104;103148;-72
2021/05/29 06:35:37;;;;;;;16.33;8.20;;;;;;;11.81;62.68;99111.33;125613;1096;103059;-71
2021/05/29 06:38:06;;;;;;;18.63;9.80;;;;;;;11.76;62.73;99116.99;125540;1096;103108;-70
2021/05/29 06:40:35;;;;;;;21.97;12.17;;;;;;;11.71;62.66;99116.49;125560;1104;102979;-71
2021/05/29 06:43:04;;;;;;;22.10;12.77;;;;;;;11.66;62.89;99121.32;125479;1104;102996;-71
2021/05/29 06:45:35;;;;;;;22.40;12.00;;;;;;;11.62;63.08;99126.05;125500;1104;103055;-71
2021/05/29 06:48:06;;;;;;;23.67;14.47;;;;;;;11.58;63.08;99125.45;125502;1104;103080;-72
2021/05/29 06:50:38;;;;;;;25.30;15.13;;;;;;;11.58;63.16;99121.91;125991;1104;103458;-72
2021/05/29 06:53:11;;;;;;;27.80;15.43;;;;;;;11.58;63.21;99124.58;125486;1104;103009;-71
2021/05/29 06:58:39;;;;;;;27.87;15.73;;;;;;;11.50;63.36;99122.51;125456;1104;103004;-71
2021/05/29 07:01:09;;;;;;;25.85;15.80;;;;;;;11.47;63.38;99118.25;125498;1104;103011;-71
2021/05/29 07:03:40;;;;;;;26.57;16.57;;;;;;;11.44;63.31;99126.47;125468;1104;103079;-71
2021/05/29 07:06:08;;;;;;;30.20;18.07;;;;;;;11.44;63.33;99112.31;125607;1104;103013;-71
2021/05/29 07:08:39;;;;;;;28.10;17.83;;;;;;;11.42;63.36;99122.23;125588;1104;103009;-73
2021/05/29 07:11:07;;;;;;;31.23;19.93;;;;;;;11.44;63.59;99120.30;125287;1104;102985;-75
2021/05/29 07:13:36;;;;;;;30.70;19.40;;;;;;;11.47;63.56;99120.91;125435;1097;102979;-72
2021/05/29 07:16:07;;;;;;;29.07;18.93;;;;;;;11.51;63.60;99124.20;125594;1096;102948;-75
2021/05/29 07:18:44;;;;;;;30.17;18.57;;;;;;;11.52;63.73;99125.04;125570;1101;103034;-75
2021/05/29 07:21:18;;;;;;;30.93;20.17;;;;;;;11.51;63.60;99120.68;125634;1096;102997;-74
2021/05/29 07:23:48;;;;;;;28.60;18.30;;;;;;;11.53;63.74;99126.74;125555;1102;102991;-71
2021/05/29 07:26:16;;;;;;;28.50;18.20;;;;;;;11.51;63.85;99126.00;125519;1101;102992;-72
2021/05/29 07:28:44;;;;;;;29.00;17.23;;;;;;;11.52;63.94;99130.38;125580;1101;102956;-75
2021/05/29 07:31:13;;;;;;;29.07;18.13;;;;;;;11.51;64.17;99128.67;125505;1101;103113;-74
2021/05/29 07:33:41;;;;;;;26.13;17.07;;;;;;;11.51;63.80;99126.88;125558;1102;103570;-70
2021/05/29 07:36:10;;;;;;;27.60;16.70;;;;;;;11.50;64.05;99129.63;125539;1104;103043;-73
2021/05/29 07:38:38;;;;;;;28.07;17.17;;;;;;;11.52;64.02;99135.70;125504;1102;103010;-73
2021/05/29 07:41:07;;;;;;;26.03;15.87;;;;;;;11.54;64.10;99136.43;125597;1104;103002;-72
2021/05/29 07:43:35;;;;;;;27.13;16.57;;;;;;;11.50;64.12;99127.84;125604;1096;103010;-72
2021/05/29 07:46:06;;;;;;;27.63;16.20;;;;;;;11.50;64.18;99125.17;125658;1101;103080;-73
2021/05/29 07:48:37;;;;;;;26.90;16.57;;;;;;;11.50;64.37;99126.97;125610;1096;102984;-74
2021/05/29 07:51:06;;;;;;;28.63;15.87;;;;;;;11.48;64.22;99124.44;125329;1103;103470;-73
2021/05/29 07:53:37;;;;;;;24.23;14.47;;;;;;;11.47;64.33;99126.23;125489;1104;103008;-73
2021/05/29 07:56:10;;;;;;;25.40;16.20;;;;;;;11.52;64.48;99127.70;125521;1096;103147;-73
2021/05/29 07:58:41;;;;;;;23.87;14.30;;;;;;;11.53;64.58;99130.27;125439;1104;102981;-72
2021/05/29 08:01:11;;;;;;;21.33;12.47;;;;;;;11.52;64.30;99127.70;125457;1104;103082;-74
2021/05/29 08:03:40;;;;;;;21.77;12.63;;;;;;;11.52;64.50;99128.57;125549;1101;103080;-74
2021/05/29 08:06:14;;;;;;;20.83;10.23;;;;;;;11.51;64.63;99126.88;125652;1101;103039;-73
2021/05/29 08:08:45;;;;;;;20.23;10.63;;;;;;;11.50;64.55;99130.50;125543;1101;103009;-77
2021/05/29 08:11:18;;;;;;;18.23;9.10;;;;;;;11.52;64.54;99130.38;125518;1096;103048;-74
2021/05/29 08:13:47;;;;;;;19.48;10.20;;;;;;;11.48;64.65;99127.10;125494;1096;103117;-76
2021/05/29 08:16:16;;;;;;;18.77;9.53;;;;;;;11.47;64.53;99130.73;125516;1097;103212;-75
2021/05/29 08:18:45;;;;;;;18.90;9.67;;;;;;;11.46;64.71;99126.37;125638;1096;103139;-72
2021/05/29 08:21:13;;;;;;;20.13;10.10;;;;;;;11.46;64.90;99123.70;125494;1104;103128;-74
2021/05/29 08:23:42;;;;;;;18.23;9.43;;;;;;;11.45;64.87;99127.33;125521;1102;103041;-73
2021/05/29 08:26:11;;;;;;;17.73;9.70;;;;;;;11.45;64.87;99132.66;125599;1097;102985;-76
2021/05/29 08:28:45;;;;;;;19.07;10.30;;;;;;;11.46;65.01;99132.53;125617;1101;102981;-76
2021/05/29 08:31:14;;;;;;;19.87;10.60;;;;;;;11.47;64.80;99138.72;125573;1096;103135;-77
2021/05/29 08:33:43;;;;;;;19.07;10.07;;;;;;;11.44;64.91;99137.12;125620;1097;103056;-78
2021/05/29 08:36:11;;;;;;;19.73;10.43;;;;;;;11.43;65.18;99134.59;125546;1104;103158;-76
2021/05/29 08:38:40;;;;;;;19.97;10.67;;;;;;;11.43;65.08;99132.76;125474;1104;103010;-76
2021/05/29 08:41:10;;;;;;;19.27;10.37;;;;;;;11.43;65.27;99127.43;125572;1104;103007;-76
2021/05/29 08:43:39;;;;;;;20.80;11.53;;;;;;;11.44;65.09;99129.13;125561;1102;103010;-76
2021/05/29 08:46:07;;;;;;;21.23;11.03;;;;;;;11.46;65.22;99134.36;125500;1102;103222;-76
2021/05/29 08:48:38;;;;;;;20.87;10.50;;;;;;;11.51;65.46;99129.53;125524;1102;102990;-74
2021/05/29 08:51:18;;;;;;;21.53;11.13;;;;;;;11.57;65.36;99134.41;125800;1096;102987;-76
2021/05/29 08:53:53;;;;;;;19.87;10.40;;;;;;;11.61;65.50;99130.52;125622;1104;103009;-75
2021/05/29 08:56:22;;;;;;;20.53;11.30;;;;;;;11.65;65.24;99132.94;125597;1096;102990;-73
2021/05/29 08:58:52;;;;;;;21.05;10.65;;;;;;;11.68;65.47;99122.05;125596;1102;103230;-74
2021/05/29 09:01:23;;;;;;;22.30;11.30;;;;;;;11.75;65.46;99128.62;125653;1096;103000;-74
2021/05/29 09:03:55;;;;;;;20.83;10.70;;;;;;;11.82;65.66;99119.19;125551;1104;103085;-77
2021/05/29 09:06:26;;;;;;;21.80;10.77;;;;;;;11.91;65.63;99121.15;125704;1096;103062;-72
2021/05/29 09:08:57;;;;;;;21.67;10.87;;;;;;;11.96;65.63;99120.78;125649;1102;103014;-74
2021/05/29 09:11:47;;;;;;;20.33;10.70;;;;;;;12.03;65.37;99121.17;125707;1101;103087;-75
2021/05/29 09:14:22;;;;;;;21.70;11.33;;;;;;;12.11;65.83;99109.93;125498;1104;103012;-75
2021/05/29 09:17:19;;;;;;;20.17;10.83;;;;;;;12.20;65.73;99118.05;125787;1101;102982;-76
2021/05/29 09:20:00;;;;;;;18.10;9.35;;;;;;;12.30;65.71;99119.99;125818;1101;102981;-76
2021/05/29 09:22:48;;;;;;;17.00;9.37;;;;;;;12.34;65.53;99124.12;125605;1104;103107;-75
2021/05/29 09:25:22;;;;;;;18.60;9.27;;;;;;;12.45;65.73;99113.42;125534;1104;103113;-73
2021/05/29 09:27:59;;;;;;;20.73;10.00;;;;;;;12.59;65.69;99114.14;125698;1101;103032;-75
2021/05/29 09:30:38;;;;;;;18.80;9.60;;;;;;;12.70;65.69;99114.13;125727;1101;103073;-75
2021/05/29 09:33:16;;;;;;;18.07;9.93;;;;;;;12.86;65.73;99108.39;125745;1101;103087;-75
2021/05/29 09:36:03;;;;;;;21.43;10.40;;;;;;;12.95;65.77;99104.11;125607;1101;103104;-73
2021/05/29 09:38:40;;;;;;;22.07;11.80;;;;;;;12.99;65.80;99102.88;125646;1102;103251;-71
2021/05/29 09:41:25;;;;;;;22.70;12.00;;;;;;;13.03;65.80;99098.98;125722;1101;103050;-72
2021/05/29 09:44:08;;;;;;;23.90;14.43;;;;;;;13.09;65.72;99105.63;125743;1101;103010;-72
2021/05/29 09:47:00;;;;;;;22.53;12.13;;;;;;;13.08;65.74;99102.13;125704;1096;103101;-72
2021/05/29 09:49:51;;;;;;;21.60;12.60;;;;;;;13.10;65.67;99107.33;125658;1101;103059;-72
2021/05/29 09:52:26;;;;;;;22.00;13.57;;;;;;;13.13;65.71;99111.59;125538;1104;103117;-72
2021/05/29 09:55:01;;;;;;;21.80;14.03;;;;;;;13.19;65.58;99105.74;125661;1101;103077;-72
2021/05/29 09:57:30;;;;;;;22.10;13.23;;;;;;;13.20;65.68;99104.77;125716;1101;103571;-72
2021/05/29 10:00:01;;;;;;;23.33;14.47;;;;;;;13.22;65.71;99105.48;125664;1101;102981;-71
2021/05/29 10:02:30;;;;;;;21.70;13.30;;;;;;;13.22;65.74;99105.48;125652;1097;103030;-71
2021/05/29 10:04:58;;;;;;;22.27;13.10;;;;;;;13.15;65.57;99105.13;125677;1096;103115;-71
2021/05/29 10:07:42;;;;;;;21.00;11.67;;;;;;;13.09;65.72;99106.50;125718;1101;103056;-72
2021/05/29 10:10:10;;;;;;;20.95;11.38;;;;;;;13.06;65.72;99104.08;125623;1102;103081;-72
2021/05/29 10:12:39;;;;;;;21.37;11.90;;;;;;;13.05;65.69;99106.86;125679;1096;103011;-72
2021/05/29 10:15:11;;;;;;;22.90;13.77;;;;;;;13.05;65.81;99110.39;125756;1101;103003;-72
2021/05/29 10:17:40;;;;;;;23.47;13.93;;;;;;;13.06;65.92;99109.42;125871;1096;102973;-74
2021/05/29 10:20:10;;;;;;;21.97;12.43;;;;;;;13.07;65.69;99112.92;125598;1101;103033;-73
2021/05/29 10:22:38;;;;;;;21.50;12.43;;;;;;;13.06;65.63;99111.22;125769;1097;102987;-74
2021/05/29 10:25:11;;;;;;;22.43;13.77;;;;;;;13.05;65.79;99117.54;125516;1096;103272;-72
2021/05/29 10:27:47;;;;;;;24.23;14.50;;;;;;;13.01;65.83;99114.29;125583;1104;103468;-76
2021/05/29 10:30:19;;;;;;;26.10;15.40;;;;;;;13.03;65.84;99114.18;125639;1104;103011;-72
2021/05/29 10:33:17;;;;;;;25.03;14.73;;;;;;;13.00;65.95;99120.60;125606;1104;102984;-77
2021/05/29 10:35:46;;;;;;;24.33;14.73;;;;;;;12.95;66.02;99120.13;125743;1102;102987;-72
2021/05/29 10:38:15;;;;;;;22.33;13.67;;;;;;;12.92;65.84;99125.72;125790;1101;103128;-74
2021/05/29 10:40:51;;;;;;;23.57;14.03;;;;;;;12.88;65.91;99119.80;125585;1101;103543;-72
2021/05/29 10:43:26;;;;;;;23.07;13.83;;;;;;;12.89;65.99;99121.48;125677;1101;102982;-81
2021/05/29 10:45:55;;;;;;;22.63;12.80;;;;;;;12.88;65.91;99117.13;125658;1102;103152;-71
2021/05/29 10:48:25;;;;;;;20.40;11.63;;;;;;;12.83;65.90;99111.30;125604;1104;103082;-74
2021/05/29 10:53:44;;;;;;;22.97;13.80;;;;;;;12.81;66.02;99113.25;125490;1104;103146;-73
2021/05/29 10:56:19;;;;;;;23.10;14.30;;;;;;;12.80;66.01;99116.89;125697;1101;102983;-76
2021/05/29 10:59:15;;;;;;;22.37;13.87;;;;;;;12.75;65.89;99103.06;125690;1102;102982;-75
2021/05/29 11:01:48;;;;;;;24.80;14.77;;;;;;;12.72;65.87;99104.18;125650;1101;102984;-74
2021/05/29 11:04:23;;;;;;;23.50;14.93;;;;;;;12.68;65.91;99109.88;125686;1097;103011;-75
2021/05/29 11:06:57;;;;;;;26.63;17.90;;;;;;;12.65;66.01;99111.81;125605;1101;103058;-75
2021/05/29 11:09:26;;;;;;;23.83;15.40;;;;;;;12.63;66.03;99113.75;125596;1096;103014;-75
2021/05/29 11:11:59;;;;;;;25.63;16.13;;;;;;;12.66;66.32;99110.84;125470;1094;103010;-74
2021/05/29 11:14:30;;;;;;;22.90;14.27;;;;;;;12.71;66.17;99112.30;125691;1101;102984;-75
2021/05/29 11:17:10;;;;;;;25.07;14.23;;;;;;;12.76;66.07;99108.30;125791;1101;103016;-78
2021/05/29 11:19:40;;;;;;;22.53;13.20;;;;;;;12.84;66.29;99113.00;125798;1101;103556;-75
2021/05/29 11:22:15;;;;;;;21.90;13.27;;;;;;;12.91;66.38;99116.88;125579;1104;103458;-75
2021/05/29 11:24:49;;;;;;;20.57;10.70;;;;;;;12.94;66.31;99116.63;125591;1096;103077;-77
2021/05/29 11:27:23;;;;;;;20.80;10.70;;;;;;;12.94;66.19;99113.09;125696;1097;102987;-75
2021/05/29 11:29:57;;;;;;;18.63;9.90;;;;;;;12.94;66.24;99116.63;125538;1101;103059;-79
2021/05/29 11:32:43;;;;;;;20.75;11.35;;;;;;;13.02;66.52;99115.16;125576;1101;103090;-79